Meamina — 2AMK7 — position and weather

sailwx.info

Track history (hours):
 
Tides and Currents Weather Stations Pressure Air Temp Water Temp Dewpoint Dewpoint Depression Visibility Wind Speed Wind Dir Waves Ship Positions

Meamina

Last reported at 2015-Jul-30 22:30 UTC. Time now 2015-Jul-30 23:03 UTC.
Position N 43°33' E 007°07'.

Length 60 m; draft 3.2 m.

MMSI: 235061022.

Date/timePositionNaut miles runAvg speedWind from/ knotsBaromVisibWave heightAir tempDewpointWater temp
2015-Jul-30 22:30N 43°33' E 007°07'0 0.0
2015-Jul-30 21:30N 43°33' E 007°07'0 0.0
2015-Jul-30 20:30N 43°33' E 007°07'0 0.0
2015-Jul-30 19:30N 43°33' E 007°07'0 0.0
2015-Jul-30 18:29N 43°33' E 007°07'0 0.0
2015-Jul-30 17:29N 43°33' E 007°07'0 0.0
2015-Jul-30 16:29N 43°33' E 007°07'0 0.0
2015-Jul-30 15:29N 43°33' E 007°07'0 0.0
2015-Jul-30 14:29N 43°33' E 007°07'0 0.0
2015-Jul-30 13:29N 43°33' E 007°07'0 0.0
2015-Jul-30 12:29N 43°33' E 007°07'0 0.0
2015-Jul-30 11:29N 43°33' E 007°07'0 0.0
2015-Jul-30 10:29N 43°33' E 007°07'0 0.0
2015-Jul-30 09:29N 43°33' E 007°07'0 0.0
2015-Jul-30 08:29N 43°33' E 007°07'0 0.0
2015-Jul-30 07:33N 43°33' E 007°07'3 2.8
2015-Jul-30 06:33N 43°32' E 007°03'0 0.0
2015-Jul-30 05:25N 43°32' E 007°03'0 0.0
2015-Jul-30 04:13N 43°31' E 007°03'0 0.0
2015-Jul-30 03:31N 43°31' E 007°03'0 0.0
2015-Jul-29 16:21N 43°32' E 007°03'0 0.0
2015-Jul-29 15:27N 43°32' E 007°03'0 0.0
2015-Jul-29 14:21N 43°32' E 007°03'0 0.0
2015-Jul-29 13:27N 43°32' E 007°03'0 0.0
2015-Jul-29 12:27N 43°32' E 007°03'0 0.0
2015-Jul-29 10:21N 43°32' E 007°03'0 0.1
2015-Jul-29 09:09N 43°31' E 007°03'0 0.0
2015-Jul-29 08:27N 43°31' E 007°03'0 0.4
2015-Jul-29 07:31N 43°32' E 007°04'1212.2
2015-Jul-29 06:33N 43°38' E 007°17'6 0.5
2015-Jul-28 19:27N 43°43' E 007°22'1 1.0
2015-Jul-28 18:29N 43°42' E 007°21'1 0.1
2015-Jul-28 12:23N 43°42' E 007°21'0 0.0
2015-Jul-28 08:13N 43°42' E 007°21'0 0.0
2015-Jul-28 07:28N 43°41' E 007°21'7 7.4
2015-Jul-28 06:33N 43°37' E 007°13'4 4.1
2015-Jul-28 05:31N 43°35' E 007°08'0 0.0
2015-Jul-28 04:31N 43°35' E 007°08'0 0.0
2015-Jul-28 03:31N 43°35' E 007°08'0 0.0
2015-Jul-28 02:31N 43°35' E 007°08'0 0.0
2015-Jul-28 01:31N 43°35' E 007°08'0 0.0
2015-Jul-28 00:31N 43°35' E 007°08'0 0.0
2015-Jul-27 23:31N 43°35' E 007°08'0 0.0
2015-Jul-27 22:25N 43°35' E 007°08'0 0.0
2015-Jul-27 21:31N 43°35' E 007°08'0 0.1
2015-Jul-27 20:31N 43°35' E 007°08'0 0.0
2015-Jul-27 19:31N 43°35' E 007°08'0 0.0
2015-Jul-27 18:33N 43°35' E 007°08'0 0.0
2015-Jul-27 17:33N 43°35' E 007°08'0 0.0
2015-Jul-27 16:27N 43°35' E 007°08'0 0.0
2015-Jul-27 15:33N 43°35' E 007°08'0 0.0
2015-Jul-27 14:33N 43°35' E 007°08'0 0.0
2015-Jul-27 13:27N 43°35' E 007°08'0 0.0
2015-Jul-27 12:33N 43°35' E 007°08'0 0.0
2015-Jul-27 11:30N 43°35' E 007°08'0 0.0
2015-Jul-27 10:24N 43°35' E 007°08'0 0.0
2015-Jul-27 09:30N 43°35' E 007°08'0 0.0
2015-Jul-27 08:30N 43°35' E 007°08'0 0.0
2015-Jul-27 07:19N 43°35' E 007°08'0 0.0
2015-Jul-27 06:32N 43°35' E 007°08'0 0.1
2015-Jul-27 05:32N 43°35' E 007°08'0 0.0
2015-Jul-27 04:26N 43°35' E 007°08'0 0.0
2015-Jul-27 03:20N 43°35' E 007°08'0 0.0
2015-Jul-27 02:32N 43°35' E 007°08'0 0.0
2015-Jul-27 01:32N 43°35' E 007°08'0 0.0
2015-Jul-27 00:32N 43°35' E 007°08'0 0.0
2015-Jul-26 23:32N 43°35' E 007°08'0 0.0
2015-Jul-26 22:31N 43°35' E 007°08'0 0.1
2015-Jul-26 21:33N 43°35' E 007°08'1010.3
2015-Jul-26 20:33N 43°26' E 006°60'1212.5
2015-Jul-26 19:33N 43°18' E 006°47'7 5.4
2015-Jul-26 18:18N 43°13' E 006°40'0 0.0
2015-Jul-26 17:28N 43°13' E 006°40'0 0.0
2015-Jul-26 16:27N 43°13' E 006°40'0 0.0
2015-Jul-26 15:07N 43°13' E 006°40'0 0.0
2015-Jul-26 14:14N 43°13' E 006°40'0 0.0
2015-Jul-26 12:32N 43°13' E 006°40'0 0.0
2015-Jul-26 11:15N 43°13' E 006°40'0 0.0
2015-Jul-26 10:30N 43°13' E 006°40'0 0.0
2015-Jul-26 09:33N 43°13' E 006°40'0 0.0
2015-Jul-26 08:33N 43°13' E 006°40'0 0.3
2015-Jul-26 07:34N 43°14' E 006°40'4 1.5
2015-Jul-26 05:16N 43°17' E 006°38'0 0.0
2015-Jul-26 03:28N 43°17' E 006°38'0 0.0
2015-Jul-26 02:22N 43°17' E 006°38'0 0.1
2015-Jul-26 01:32N 43°17' E 006°38'0 0.0
2015-Jul-26 00:22N 43°17' E 006°38'0 0.0
2015-Jul-25 23:28N 43°17' E 006°38'0 0.0
2015-Jul-25 22:13N 43°17' E 006°38'0 0.0
2015-Jul-25 21:16N 43°17' E 006°38'0 0.1
2015-Jul-25 20:28N 43°17' E 006°38'0 0.1
2015-Jul-25 19:24N 43°17' E 006°38'0 0.0
2015-Jul-25 18:32N 43°17' E 006°38'1 0.5
2015-Jul-25 17:31N 43°17' E 006°39'4 4.0
2015-Jul-25 16:33N 43°13' E 006°40'0 0.0
2015-Jul-25 15:30N 43°13' E 006°40'0 0.0
2015-Jul-25 13:33N 43°13' E 006°40'0 0.0
2015-Jul-25 12:30N 43°13' E 006°40'0 0.0
2015-Jul-25 11:18N 43°13' E 006°40'0 0.0
2015-Jul-25 10:24N 43°13' E 006°40'0 0.0
2015-Jul-25 09:33N 43°13' E 006°40'0 0.0
2015-Jul-25 08:12N 43°13' E 006°40'0 0.0
2015-Jul-25 07:33N 43°13' E 006°40'9 8.6
2015-Jul-25 06:32N 43°19' E 006°49'1111.0
2015-Jul-25 05:33N 43°28' E 006°58'5 0.5
2015-Jul-24 18:30N 43°32' E 007°02'0 0.0
2015-Jul-24 17:06N 43°32' E 007°02'0 0.0
2015-Jul-24 16:12N 43°32' E 007°02'0 0.0
2015-Jul-24 15:24N 43°32' E 007°02'0 0.0
2015-Jul-24 14:30N 43°32' E 007°02'0 0.0
2015-Jul-24 13:33N 43°32' E 007°02'7 7.0
2015-Jul-24 12:33N 43°36' E 007°10'3 3.1
2015-Jul-24 11:31N 43°39' E 007°10'0 0.0
2015-Jul-24 10:25N 43°39' E 007°10'0 0.0
2015-Jul-24 09:25N 43°39' E 007°10'0 0.0
2015-Jul-24 08:31N 43°39' E 007°11'0 0.0
2015-Jul-24 07:31N 43°39' E 007°10'0 0.0
2015-Jul-24 06:31N 43°39' E 007°11'0 0.0
2015-Jul-24 05:31N 43°39' E 007°11'0 0.0
2015-Jul-24 04:31N 43°39' E 007°10'0 0.0
2015-Jul-24 03:31N 43°39' E 007°11'0 0.0
2015-Jul-24 02:31N 43°39' E 007°11'0 0.0
2015-Jul-24 01:31N 43°39' E 007°11'0 0.0
2015-Jul-24 00:31N 43°39' E 007°11'0 0.0
2015-Jul-23 23:31N 43°39' E 007°11'0 0.0
2015-Jul-23 22:31N 43°39' E 007°11'0 0.0
2015-Jul-23 21:31N 43°39' E 007°11'0 0.0
2015-Jul-23 20:25N 43°39' E 007°10'0 0.0
2015-Jul-23 19:31N 43°39' E 007°10'0 0.0
2015-Jul-23 18:31N 43°39' E 007°11'0 0.0
2015-Jul-23 17:31N 43°39' E 007°11'0 0.0
2015-Jul-23 16:31N 43°39' E 007°10'0 0.0
2015-Jul-23 15:31N 43°39' E 007°10'0 0.0
2015-Jul-23 14:31N 43°39' E 007°10'0 0.0
2015-Jul-23 13:31N 43°39' E 007°10'0 0.0
2015-Jul-23 12:31N 43°39' E 007°10'0 0.0
2015-Jul-23 11:31N 43°39' E 007°10'0 0.0
2015-Jul-23 10:31N 43°39' E 007°10'0 0.0
2015-Jul-23 09:19N 43°39' E 007°10'0 0.0
2015-Jul-23 08:31N 43°39' E 007°10'0 0.0
2015-Jul-23 07:25N 43°39' E 007°11'6 6.9
2015-Jul-23 06:33N 43°33' E 007°13'2912.4
2015-Jul-23 04:14N 43°07' E 007°30'812.4
2015-Jul-23 03:33N 42°60' E 007°35'1712.4
2015-Jul-23 02:12N 42°45' E 007°45'1012.3
2015-Jul-23 01:25N 42°36' E 007°51'1112.1
2015-Jul-23 00:33N 42°26' E 007°56'  
Track history (hours):
 
Tides and Currents Weather Stations Pressure Air Temp Water Temp Dewpoint Dewpoint Depression Visibility Wind Speed Wind Dir Waves Ship Positions

Meamina

Last reported at 2015-Jul-30 22:30 UTC. Time now 2015-Jul-30 23:03 UTC.
Position N 43°33' E 007°07'.

Length 60 m; draft 3.2 m.

MMSI: 235061022.

Date/timePositionNaut miles runAvg speedWind from/ knotsBaromVisibWave heightAir tempDewpointWater temp
2015-Jul-30 22:30N 43°33' E 007°07'0 0.0
2015-Jul-30 21:30N 43°33' E 007°07'0 0.0
2015-Jul-30 20:30N 43°33' E 007°07'0 0.0
2015-Jul-30 19:30N 43°33' E 007°07'0 0.0
2015-Jul-30 18:29N 43°33' E 007°07'0 0.0
2015-Jul-30 17:29N 43°33' E 007°07'0 0.0
2015-Jul-30 16:29N 43°33' E 007°07'0 0.0
2015-Jul-30 15:29N 43°33' E 007°07'0 0.0
2015-Jul-30 14:29N 43°33' E 007°07'0 0.0
2015-Jul-30 13:29N 43°33' E 007°07'0 0.0
2015-Jul-30 12:29N 43°33' E 007°07'0 0.0
2015-Jul-30 11:29N 43°33' E 007°07'0 0.0
2015-Jul-30 10:29N 43°33' E 007°07'0 0.0
2015-Jul-30 09:29N 43°33' E 007°07'0 0.0
2015-Jul-30 08:29N 43°33' E 007°07'0 0.0
2015-Jul-30 07:33N 43°33' E 007°07'3 2.8
2015-Jul-30 06:33N 43°32' E 007°03'0 0.0
2015-Jul-30 05:25N 43°32' E 007°03'0 0.0
2015-Jul-30 04:13N 43°31' E 007°03'0 0.0
2015-Jul-30 03:31N 43°31' E 007°03'0 0.0
2015-Jul-29 16:21N 43°32' E 007°03'0 0.0
2015-Jul-29 15:27N 43°32' E 007°03'0 0.0
2015-Jul-29 14:21N 43°32' E 007°03'0 0.0
2015-Jul-29 13:27N 43°32' E 007°03'0 0.0
2015-Jul-29 12:27N 43°32' E 007°03'0 0.0
2015-Jul-29 10:21N 43°32' E 007°03'0 0.1
2015-Jul-29 09:09N 43°31' E 007°03'0 0.0
2015-Jul-29 08:27N 43°31' E 007°03'0 0.4
2015-Jul-29 07:31N 43°32' E 007°04'1212.2
2015-Jul-29 06:33N 43°38' E 007°17'6 0.5
2015-Jul-28 19:27N 43°43' E 007°22'1 1.0
2015-Jul-28 18:29N 43°42' E 007°21'1 0.1
2015-Jul-28 12:23N 43°42' E 007°21'0 0.0
2015-Jul-28 08:13N 43°42' E 007°21'0 0.0
2015-Jul-28 07:28N 43°41' E 007°21'7 7.4
2015-Jul-28 06:33N 43°37' E 007°13'4 4.1
2015-Jul-28 05:31N 43°35' E 007°08'0 0.0
2015-Jul-28 04:31N 43°35' E 007°08'0 0.0
2015-Jul-28 03:31N 43°35' E 007°08'0 0.0
2015-Jul-28 02:31N 43°35' E 007°08'0 0.0
2015-Jul-28 01:31N 43°35' E 007°08'0 0.0
2015-Jul-28 00:31N 43°35' E 007°08'0 0.0
2015-Jul-27 23:31N 43°35' E 007°08'0 0.0
2015-Jul-27 22:25N 43°35' E 007°08'0 0.0
2015-Jul-27 21:31N 43°35' E 007°08'0 0.1
2015-Jul-27 20:31N 43°35' E 007°08'0 0.0
2015-Jul-27 19:31N 43°35' E 007°08'0 0.0
2015-Jul-27 18:33N 43°35' E 007°08'0 0.0
2015-Jul-27 17:33N 43°35' E 007°08'0 0.0
2015-Jul-27 16:27N 43°35' E 007°08'0 0.0
2015-Jul-27 15:33N 43°35' E 007°08'0 0.0
2015-Jul-27 14:33N 43°35' E 007°08'0 0.0
2015-Jul-27 13:27N 43°35' E 007°08'0 0.0
2015-Jul-27 12:33N 43°35' E 007°08'0 0.0
2015-Jul-27 11:30N 43°35' E 007°08'0 0.0
2015-Jul-27 10:24N 43°35' E 007°08'0 0.0
2015-Jul-27 09:30N 43°35' E 007°08'0 0.0
2015-Jul-27 08:30N 43°35' E 007°08'0 0.0
2015-Jul-27 07:19N 43°35' E 007°08'0 0.0
2015-Jul-27 06:32N 43°35' E 007°08'0 0.1
2015-Jul-27 05:32N 43°35' E 007°08'0 0.0
2015-Jul-27 04:26N 43°35' E 007°08'0 0.0
2015-Jul-27 03:20N 43°35' E 007°08'0 0.0
2015-Jul-27 02:32N 43°35' E 007°08'0 0.0
2015-Jul-27 01:32N 43°35' E 007°08'0 0.0
2015-Jul-27 00:32N 43°35' E 007°08'0 0.0
2015-Jul-26 23:32N 43°35' E 007°08'0 0.0
2015-Jul-26 22:31N 43°35' E 007°08'0 0.1
2015-Jul-26 21:33N 43°35' E 007°08'1010.3
2015-Jul-26 20:33N 43°26' E 006°60'1212.5
2015-Jul-26 19:33N 43°18' E 006°47'7 5.4
2015-Jul-26 18:18N 43°13' E 006°40'0 0.0
2015-Jul-26 17:28N 43°13' E 006°40'0 0.0
2015-Jul-26 16:27N 43°13' E 006°40'0 0.0
2015-Jul-26 15:07N 43°13' E 006°40'0 0.0
2015-Jul-26 14:14N 43°13' E 006°40'0 0.0
2015-Jul-26 12:32N 43°13' E 006°40'0 0.0
2015-Jul-26 11:15N 43°13' E 006°40'0 0.0
2015-Jul-26 10:30N 43°13' E 006°40'0 0.0
2015-Jul-26 09:33N 43°13' E 006°40'0 0.0
2015-Jul-26 08:33N 43°13' E 006°40'0 0.3
2015-Jul-26 07:34N 43°14' E 006°40'4 1.5
2015-Jul-26 05:16N 43°17' E 006°38'0 0.0
2015-Jul-26 03:28N 43°17' E 006°38'0 0.0
2015-Jul-26 02:22N 43°17' E 006°38'0 0.1
2015-Jul-26 01:32N 43°17' E 006°38'0 0.0
2015-Jul-26 00:22N 43°17' E 006°38'0 0.0
2015-Jul-25 23:28N 43°17' E 006°38'0 0.0
2015-Jul-25 22:13N 43°17' E 006°38'0 0.0
2015-Jul-25 21:16N 43°17' E 006°38'0 0.1
2015-Jul-25 20:28N 43°17' E 006°38'0 0.1
2015-Jul-25 19:24N 43°17' E 006°38'0 0.0
2015-Jul-25 18:32N 43°17' E 006°38'1 0.5
2015-Jul-25 17:31N 43°17' E 006°39'4 4.0
2015-Jul-25 16:33N 43°13' E 006°40'0 0.0
2015-Jul-25 15:30N 43°13' E 006°40'0 0.0
2015-Jul-25 13:33N 43°13' E 006°40'0 0.0
2015-Jul-25 12:30N 43°13' E 006°40'0 0.0
2015-Jul-25 11:18N 43°13' E 006°40'0 0.0
2015-Jul-25 10:24N 43°13' E 006°40'0 0.0
2015-Jul-25 09:33N 43°13' E 006°40'0 0.0
2015-Jul-25 08:12N 43°13' E 006°40'0 0.0
2015-Jul-25 07:33N 43°13' E 006°40'9 8.6
2015-Jul-25 06:32N 43°19' E 006°49'1111.0
2015-Jul-25 05:33N 43°28' E 006°58'5 0.5
2015-Jul-24 18:30N 43°32' E 007°02'0 0.0
2015-Jul-24 17:06N 43°32' E 007°02'0 0.0
2015-Jul-24 16:12N 43°32' E 007°02'0 0.0
2015-Jul-24 15:24N 43°32' E 007°02'0 0.0
2015-Jul-24 14:30N 43°32' E 007°02'0 0.0
2015-Jul-24 13:33N 43°32' E 007°02'7 7.0
2015-Jul-24 12:33N 43°36' E 007°10'3 3.1
2015-Jul-24 11:31N 43°39' E 007°10'0 0.0
2015-Jul-24 10:25N 43°39' E 007°10'0 0.0
2015-Jul-24 09:25N 43°39' E 007°10'0 0.0
2015-Jul-24 08:31N 43°39' E 007°11'0 0.0
2015-Jul-24 07:31N 43°39' E 007°10'0 0.0
2015-Jul-24 06:31N 43°39' E 007°11'0 0.0
2015-Jul-24 05:31N 43°39' E 007°11'0 0.0
2015-Jul-24 04:31N 43°39' E 007°10'0 0.0
2015-Jul-24 03:31N 43°39' E 007°11'0 0.0
2015-Jul-24 02:31N 43°39' E 007°11'0 0.0
2015-Jul-24 01:31N 43°39' E 007°11'0 0.0
2015-Jul-24 00:31N 43°39' E 007°11'0 0.0
2015-Jul-23 23:31N 43°39' E 007°11'0 0.0
2015-Jul-23 22:31N 43°39' E 007°11'0 0.0
2015-Jul-23 21:31N 43°39' E 007°11'0 0.0
2015-Jul-23 20:25N 43°39' E 007°10'0 0.0
2015-Jul-23 19:31N 43°39' E 007°10'0 0.0
2015-Jul-23 18:31N 43°39' E 007°11'0 0.0
2015-Jul-23 17:31N 43°39' E 007°11'0 0.0
2015-Jul-23 16:31N 43°39' E 007°10'0 0.0
2015-Jul-23 15:31N 43°39' E 007°10'0 0.0
2015-Jul-23 14:31N 43°39' E 007°10'0 0.0
2015-Jul-23 13:31N 43°39' E 007°10'0 0.0
2015-Jul-23 12:31N 43°39' E 007°10'0 0.0
2015-Jul-23 11:31N 43°39' E 007°10'0 0.0
2015-Jul-23 10:31N 43°39' E 007°10'0 0.0
2015-Jul-23 09:19N 43°39' E 007°10'0 0.0
2015-Jul-23 08:31N 43°39' E 007°10'0 0.0
2015-Jul-23 07:25N 43°39' E 007°11'6 6.9
2015-Jul-23 06:33N 43°33' E 007°13'2912.4
2015-Jul-23 04:14N 43°07' E 007°30'812.4
2015-Jul-23 03:33N 42°60' E 007°35'1712.4
2015-Jul-23 02:12N 42°45' E 007°45'1012.3
2015-Jul-23 01:25N 42°36' E 007°51'1112.1
2015-Jul-23 00:33N 42°26' E 007°56'  

Dump ship's entire track history